Latest Coastal Weather Observations for Derby

IDW60701

Issued at 9:43 am WST Thursday 1 September 2016 (issued every 10 minutes, with the page automatically refreshed every 10 minutes)

About coastal observations | Map of coastal stations | Coastal observations for WA | Marine services | Other Formats
Station Details ID: 003032 Name: DERBY AERO Lat: -17.37 Lon: 123.66 Height: 6.2 m
Data from the previous 72 hours. | See also: Recent months at Derby
Date/Time
WST
Temp
°C
Wind Pressure Rain since
9am
mm
Weather Cloud Vis
km
Sea
Height
m
Swell
Dir  Spd
kts
Gust
kts
hPa Trend Height
m
Period
s
Dir
01/09:30am 26.9 SSW 15 20 1015.4 - 0.0 - - - - - - -
01/09:00am 26.4 SW 12 16 1015.4 - 0.0 - - - - - - -
01/08:30am 25.8 SSW 12 17 1015.6 - 0.0 - - - - - - -
01/08:00am 24.8 SSW 8 10 1015.2 - 0.0 - - - - - - -
01/07:30am 23.8 S 5 7 1015.0 - 0.0 - - - - - - -
01/07:00am 22.9 SSE 5 7 1014.7 - 0.0 - - - - - - -
01/06:30am 22.1 S 5 6 1014.5 - 0.0 - - - - - - -
01/06:00am 21.8 S 6 7 1014.2 - 0.0 - - - - - - -
01/05:30am 21.8 S 5 5 1014.0 - 0.0 - - - - - - -
01/05:00am 21.9 S 4 5 1013.6 - 0.0 - - - - - - -
01/04:30am 22.1 SSW 4 6 1013.4 - 0.0 - - - - - - -
01/04:00am 22.4 SSW 7 9 1013.3 - 0.0 - - - - - - -
01/03:30am 22.6 SSW 8 11 1013.3 - 0.0 - - - - - - -
01/03:00am 23.0 SSW 10 15 1013.2 - 0.0 - - - - - - -
01/02:30am 23.1 SW 13 17 1013.5 - 0.0 - - - - - - -
01/02:00am 22.9 SW 10 13 1013.6 - 0.0 - - - - - - -
01/01:30am 22.8 SW 6 7 1013.8 - 0.0 - - - - - - -
01/01:00am 23.2 SW 7 8 1014.0 - 0.0 - - - - - - -
01/12:30am 23.2 WSW 6 7 1014.3 - 0.0 - - - - - - -
01/12:00am 23.7 WNW 5 7 1014.5 - 0.0 - - - - - - -
 
Date/Time
WST
Temp
°C
Wind Pressure Rain since
9am
mm
Weather Cloud Vis
km
Sea
Height
m
Swell
Dir  Spd
kts
Gust
kts
hPa Trend Height
m
Period
s
Dir
31/11:30pm 24.0 WNW 7 9 1014.6 - 0.0 - - - - - - -
31/11:00pm 24.2 NW 8 9 1014.8 - 0.0 - - - - - - -
31/10:30pm 24.6 NW 10 11 1014.9 - 0.0 - - - - - - -
31/10:00pm 24.8 NNW 9 11 1014.8 - 0.0 - - - - - - -
31/09:30pm 25.0 NNW 10 11 1014.7 - 0.0 - - - - - - -
31/09:00pm 25.1 NNW 10 12 1014.6 - 0.0 - - - - - - -
31/08:30pm 25.2 NNW 8 10 1014.4 - 0.0 - - - - - - -
31/08:00pm 25.3 NNW 7 9 1014.3 - 0.0 - - - - - - -
31/07:30pm 25.3 NNW 8 10 1013.9 - 0.0 - - - - - - -
31/07:00pm 25.5 NNW 8 10 1013.5 - 0.0 - - - - - - -
31/06:30pm 25.9 NNW 9 12 1013.1 - 0.0 - - - - - - -
31/06:00pm 26.1 NNW 11 13 1012.8 - 0.0 - - - - - - -
31/05:30pm 26.7 NNW 12 15 1012.5 - 0.0 - - - - - - -
31/05:00pm 29.3 NNW 7 9 1012.3 - 0.0 - - - - - - -
31/04:30pm 29.3 NNW 7 9 1012.3 - 0.0 - - - - - - -
31/04:00pm 29.6 NNW 5 6 1012.3 - 0.0 - - - - - - -
31/03:30pm 29.7 NNW 4 6 1012.2 - 0.0 - - - - - - -
31/03:00pm 29.4 NNW 4 6 1012.4 - 0.0 - - - - - - -
31/02:30pm 29.5 NW 6 7 1012.8 - 0.0 - - - - - - -
31/02:00pm 29.6 WNW 7 12 1013.2 - 0.0 - - - - - - -
31/01:30pm 29.8 W 7 10 1013.4 - 0.0 - - - - - - -
31/01:00pm 29.8 WNW 5 9 1013.8 - 0.0 - - - - - - -
31/12:30pm 29.9 WNW 6 10 1014.3 - 0.0 - - - - - - -
31/12:00pm 29.3 WNW 7 10 1014.8 - 0.0 - - - - - - -
31/11:30am 29.1 NW 5 7 1015.1 - 0.0 - - - - - - -
31/11:00am 28.7 NNW 5 8 1015.6 - 0.0 - - - - - - -
31/10:30am 28.1 SSW 5 8 1016.1 - 0.0 - - - - - - -
31/10:00am 27.7 S 4 7 1016.3 - 0.0 - - - - - - -
31/09:30am 27.0 ENE 3 6 1016.5 - 0.0 - - - - - - -
31/09:00am 26.2 NE 2 4 1016.6 - 2.2 - - - - - - -
31/08:30am 25.4 E 2 5 1016.7 - 2.2 - - - - - - -
31/08:00am 24.6 ESE 5 7 1016.3 - 2.2 - - - - - - -
31/07:30am 23.6 SE 4 5 1016.0 - 2.2 - - - - - - -
31/07:00am 23.4 S 4 6 1015.6 - 2.2 - - - - - - -
31/06:30am 23.3 SE 1 3 1015.1 - 2.2 - - - - - - -
31/06:00am 22.9 CALM 0 0 1014.7 - 2.2 - - - - - - -
31/05:30am 22.8 CALM 0 1 1014.5 - 2.2 - - - - - - -
31/05:00am 22.8 SSE 4 5 1014.2 - 2.2 - - - - - - -
31/04:30am 22.8 S 4 5 1014.1 - 2.2 - - - - - - -
31/04:00am 23.3 CALM 0 0 1013.9 - 2.2 - - - - - - -
31/03:30am 23.3 SSE 4 5 1013.6 - 2.2 - - - - - - -
31/03:00am 23.3 ENE 5 6 1013.6 - 2.2 - - - - - - -
31/02:30am 23.1 NE 6 8 1013.7 - 2.2 - - - - - - -
31/02:00am 23.2 E 4 6 1014.1 - 2.2 - - - - - - -
31/01:30am 23.2 NE 4 5 1014.4 - 2.2 - - - - - - -
31/01:00am 23.3 NE 4 5 1014.7 - 2.2 - - - - - - -
31/12:30am 23.4 NE 3 5 1015.0 - 2.2 - - - - - - -
31/12:00am 23.5 CALM 0 0 1015.1 - 2.2 - - - - - - -
 
Date/Time
WST
Temp
°C
Wind Pressure Rain since
9am
mm
Weather Cloud Vis
km
Sea
Height
m
Swell
Dir  Spd
kts
Gust
kts
hPa Trend Height
m
Period
s
Dir
30/11:30pm 23.6 E 3 5 1015.3 - 2.2 - - - - - - -
30/11:00pm 23.6 NE 5 6 1015.3 - 2.2 - - - - - - -
30/10:30pm 23.7 NE 6 8 1015.3 - 2.2 - - - - - - -
30/10:00pm 23.9 ENE 5 6 1015.1 - 2.2 - - - - - - -
30/09:30pm 23.9 E 5 6 1015.3 - 2.2 - - - - - - -
30/09:00pm 24.1 E 5 6 1015.5 - 2.2 - - - - - - -
30/08:30pm 24.1 E 6 8 1015.3 - 2.2 - - - - - - -
30/08:00pm 24.3 E 4 5 1015.3 - 2.2 - - - - - - -
30/07:30pm 24.4 ENE 3 5 1014.9 - 2.2 - - - - - - -
30/07:00pm 24.5 ENE 4 5 1014.5 - 2.2 - - - - - - -
30/06:30pm 24.5 ESE 5 6 1014.2 - 2.2 - - - - - - -
30/06:00pm 24.6 ESE 6 7 1013.9 - 2.2 - - - - - - -
30/05:30pm 24.9 SE 5 7 1013.7 - 2.2 - - - - - - -
30/05:00pm 24.9 SSE 7 8 1013.6 - 2.2 - - - - - - -
30/04:30pm 25.2 S 6 8 1013.5 - 2.2 - - - - - - -
30/04:00pm 25.0 SSE 7 9 1013.3 - 2.2 - - - - - - -
30/03:30pm 24.9 SSE 7 9 1013.2 - 2.2 - - - - - - -
30/03:00pm 25.0 S 7 11 1013.3 - 2.2 - - - - - - -
30/02:30pm 25.0 ESE 6 8 1013.3 - 2.2 - - - - - - -
30/02:00pm 24.4 ENE 5 8 1013.6 - 2.2 - - - - - - -
30/01:30pm 24.2 ENE 5 8 1013.9 - 2.2 - - - - - - -
30/01:00pm 23.5 ENE 6 8 1014.6 - 2.2 - - - - - - -
30/12:30pm 23.1 ENE 6 8 1014.9 - 2.0 - - - - - - -
30/12:00pm 22.6 ENE 5 7 1015.3 - 2.0 Recent precip. - - - - - -
30/11:30am 22.0 E 6 7 1015.8 - 2.0 - - - - - - -
30/11:00am 21.6 E 7 9 1015.9 - 1.6 - - - - - - -
30/10:30am 21.1 SSE 6 8 1016.4 - 1.4 - - - - - - -
30/10:00am 21.0 SSE 7 8 1016.8 - 0.6 - - - - - - -
30/09:30am 21.1 S 6 7 1017.0 - 0.2 - - - - - - -
30/09:00am 20.8 SSE 5 6 1017.0 - 21.4 Rain - - - - - -
30/08:30am 20.7 SE 3 4 1016.8 - 21.0 - - - - - - -
30/08:00am 20.5 E 2 4 1016.6 - 20.2 - - - - - - -
30/07:30am 20.3 ESE 3 4 1016.3 - 19.6 - - - - - - -
30/07:00am 20.5 SSE 3 5 1016.0 - 17.8 - - - - - - -
30/06:30am 20.5 SSW 4 5 1015.6 - 14.8 - - - - - - -
30/06:00am 21.1 SSE 3 4 1015.1 - 12.6 Rain - - - - - -
30/05:30am 21.0 E 4 5 1014.5 - 12.4 - - - - - - -
30/05:00am 21.0 ESE 5 6 1014.1 - 12.2 - - - - - - -
30/04:30am 20.9 SE 4 6 1013.7 - 12.2 - - - - - - -
30/04:00am 21.1 SSW 5 6 1013.5 - 12.2 - - - - - - -
30/03:30am 21.5 SSW 5 7 1013.5 - 11.8 - - - - - - -
30/03:00am 21.8 S 4 5 1013.4 - 11.8 Recent precip. - - - - - -
30/02:30am 21.8 CALM 0 1 1013.4 - 11.8 - - - - - - -
30/02:00am 21.6 CALM 0 0 1013.6 - 11.6 - - - - - - -
30/01:30am 21.6 ENE 2 3 1013.7 - 11.6 - - - - - - -
30/01:00am 21.5 CALM 0 0 1013.9 - 11.6 - - - - - - -
30/12:30am 21.3 CALM 0 0 1013.9 - 11.6 - - - - - - -
30/12:00am 21.3 NE 4 4 1013.8 - 11.0 Rain - - - - - -
 
Date/Time
WST
Temp
°C
Wind Pressure Rain since
9am
mm
Weather Cloud Vis
km
Sea
Height
m
Swell
Dir  Spd
kts
Gust
kts
hPa Trend Height
m
Period
s
Dir
29/11:30pm 21.4 ENE 5 7 1013.9 - 10.8 - - - - - - -
29/11:00pm 21.4 NE 3 6 1014.7 - 10.6 - - - - - - -
29/10:30pm 21.4 NNE 5 6 1014.8 - 10.2 - - - - - - -
29/10:00pm 21.4 N 5 6 1014.6 - 9.6 - - - - - - -
29/09:30pm 21.4 NNE 4 6 1014.1 - 9.4 - - - - - - -
29/09:00pm 21.5 NE 3 4 1013.9 - 9.4 - - - - - - -
29/08:30pm 21.5 NE 5 7 1013.5 - 9.4 - - - - - - -
29/08:00pm 21.6 NE 3 5 1013.3 - 9.4 - - - - - - -
29/07:30pm 21.1 SSW 2 5 1013.3 - 9.4 - - - - - - -
29/07:00pm 21.1 W 8 10 1013.4 - 9.2 - - - - - - -
29/06:30pm 21.1 WSW 7 9 1013.6 - 9.2 - - - - - - -
29/06:00pm 21.0 SW 10 15 1013.2 - 8.2 Rain - - - - - -
29/05:30pm 21.7 SSW 13 17 1012.7 - 6.6 - - - - - - -
29/05:00pm 21.9 S 11 13 1012.4 - 5.6 - - - - - - -
29/04:30pm 21.9 SSW 11 14 1012.3 - 4.2 - - - - - - -
29/04:00pm 22.1 SSW 12 14 1011.6 - 3.2 - - - - - - -
29/03:30pm 22.2 SSW 13 16 1011.2 - 1.6 - - - - - - -
29/03:00pm 22.5 SSW 16 20 1011.0 - 0.2 Rain - - - - - -
29/02:30pm 24.9 SSW 15 20 1011.0 - 0.0 - - - - - - -
29/02:00pm 25.1 SW 16 18 1010.9 - 0.0 - - - - - - -
29/01:30pm 27.8 SW 15 21 1010.7 - 0.0 - - - - - - -
29/01:00pm 29.5 WNW 11 15 1010.5 - 0.0 - - - - - - -
29/12:30pm 31.0 NW 11 16 1010.5 - 0.0 - - - - - - -
29/12:00pm 31.0 NW 8 14 1010.9 - 0.0 - - - - - - -
29/11:30am 30.9 WNW 8 12 1011.2 - 0.0 - - - - - - -
29/11:00am 30.4 WNW 6 9 1011.7 - 0.0 - - - - - - -
29/10:30am 30.0 W 7 11 1012.4 - 0.0 - - - - - - -
29/10:00am 29.3 NNW 6 9 1012.6 - 0.0 - - - - - - -

Other Formats:

Comma delimited format used in spreadsheet applications
http://www.bom.gov.au/fwo/IDW60701/IDW60701.95205.axf

JavaScript Object Notation format (JSON) in row-major order
http://www.bom.gov.au/fwo/IDW60701/IDW60701.95205.json